sensor_id;sensor_type;location;lat;lon;timestamp;P1;durP1;ratioP1;P2;durP2;ratioP2
19883;SDS011;10104;50.732;10.174;2024-01-10T00:00:07;42.60;;;16.10;;
19883;SDS011;10104;50.732;10.174;2024-01-10T00:02:48;38.77;;;16.30;;
19883;SDS011;10104;50.732;10.174;2024-01-10T00:05:29;39.27;;;16.23;;
19883;SDS011;10104;50.732;10.174;2024-01-10T00:08:08;36.33;;;14.53;;
19883;SDS011;10104;50.732;10.174;2024-01-10T00:10:49;41.00;;;17.73;;
19883;SDS011;10104;50.732;10.174;2024-01-10T00:13:33;34.70;;;15.83;;
19883;SDS011;10104;50.732;10.174;2024-01-10T00:16:13;41.33;;;17.17;;
19883;SDS011;10104;50.732;10.174;2024-01-10T00:18:54;38.43;;;18.00;;
19883;SDS011;10104;50.732;10.174;2024-01-10T00:21:34;46.77;;;18.20;;
19883;SDS011;10104;50.732;10.174;2024-01-10T00:24:15;39.87;;;16.97;;
19883;SDS011;10104;50.732;10.174;2024-01-10T00:26:55;36.17;;;15.90;;
19883;SDS011;10104;50.732;10.174;2024-01-10T00:29:35;42.43;;;17.23;;
19883;SDS011;10104;50.732;10.174;2024-01-10T00:32:15;43.03;;;18.23;;
19883;SDS011;10104;50.732;10.174;2024-01-10T00:34:56;41.23;;;17.00;;
19883;SDS011;10104;50.732;10.174;2024-01-10T00:37:36;39.60;;;17.30;;
19883;SDS011;10104;50.732;10.174;2024-01-10T00:40:16;44.57;;;16.63;;
19883;SDS011;10104;50.732;10.174;2024-01-10T00:42:56;36.80;;;17.10;;
19883;SDS011;10104;50.732;10.174;2024-01-10T00:45:36;39.67;;;15.17;;
19883;SDS011;10104;50.732;10.174;2024-01-10T00:48:17;40.07;;;16.93;;
19883;SDS011;10104;50.732;10.174;2024-01-10T00:50:57;34.60;;;15.43;;
19883;SDS011;10104;50.732;10.174;2024-01-10T00:53:38;39.00;;;16.10;;
19883;SDS011;10104;50.732;10.174;2024-01-10T00:56:22;39.57;;;17.40;;
19883;SDS011;10104;50.732;10.174;2024-01-10T00:59:02;39.67;;;17.50;;
19883;SDS011;10104;50.732;10.174;2024-01-10T01:01:42;39.60;;;15.73;;
19883;SDS011;10104;50.732;10.174;2024-01-10T01:04:22;35.30;;;15.73;;
19883;SDS011;10104;50.732;10.174;2024-01-10T01:07:02;40.13;;;16.60;;
19883;SDS011;10104;50.732;10.174;2024-01-10T01:09:43;46.47;;;16.63;;
19883;SDS011;10104;50.732;10.174;2024-01-10T01:12:23;45.47;;;17.43;;
19883;SDS011;10104;50.732;10.174;2024-01-10T01:15:03;42.93;;;17.30;;
19883;SDS011;10104;50.732;10.174;2024-01-10T01:17:44;43.37;;;17.17;;
19883;SDS011;10104;50.732;10.174;2024-01-10T01:20:24;37.57;;;16.27;;
19883;SDS011;10104;50.732;10.174;2024-01-10T01:23:07;40.23;;;16.43;;
19883;SDS011;10104;50.732;10.174;2024-01-10T01:25:47;34.47;;;16.23;;
19883;SDS011;10104;50.732;10.174;2024-01-10T01:28:28;42.80;;;17.20;;
19883;SDS011;10104;50.732;10.174;2024-01-10T01:31:08;41.10;;;16.07;;
19883;SDS011;10104;50.732;10.174;2024-01-10T01:33:48;40.67;;;15.67;;
19883;SDS011;10104;50.732;10.174;2024-01-10T01:36:29;37.17;;;17.47;;
19883;SDS011;10104;50.732;10.174;2024-01-10T01:39:09;38.30;;;16.27;;
19883;SDS011;10104;50.732;10.174;2024-01-10T01:41:49;45.83;;;18.40;;
19883;SDS011;10104;50.732;10.174;2024-01-10T01:44:29;41.60;;;18.30;;
19883;SDS011;10104;50.732;10.174;2024-01-10T01:47:09;36.77;;;16.63;;
19883;SDS011;10104;50.732;10.174;2024-01-10T01:49:50;43.70;;;17.67;;
19883;SDS011;10104;50.732;10.174;2024-01-10T01:52:31;39.70;;;16.67;;
19883;SDS011;10104;50.732;10.174;2024-01-10T01:55:11;36.73;;;16.53;;
19883;SDS011;10104;50.732;10.174;2024-01-10T01:57:52;35.37;;;16.63;;
19883;SDS011;10104;50.732;10.174;2024-01-10T02:00:32;41.27;;;17.37;;
19883;SDS011;10104;50.732;10.174;2024-01-10T02:03:12;41.97;;;16.87;;
19883;SDS011;10104;50.732;10.174;2024-01-10T02:05:53;36.27;;;16.97;;
19883;SDS011;10104;50.732;10.174;2024-01-10T02:08:35;44.50;;;17.87;;
19883;SDS011;10104;50.732;10.174;2024-01-10T02:11:15;45.03;;;18.17;;
19883;SDS011;10104;50.732;10.174;2024-01-10T02:13:55;40.50;;;16.50;;
19883;SDS011;10104;50.732;10.174;2024-01-10T02:16:36;41.77;;;17.07;;
19883;SDS011;10104;50.732;10.174;2024-01-10T02:19:20;39.03;;;16.33;;
19883;SDS011;10104;50.732;10.174;2024-01-10T02:22:03;38.07;;;15.07;;
19883;SDS011;10104;50.732;10.174;2024-01-10T02:24:44;31.10;;;15.80;;
19883;SDS011;10104;50.732;10.174;2024-01-10T02:27:24;45.33;;;16.53;;
19883;SDS011;10104;50.732;10.174;2024-01-10T02:30:05;38.63;;;16.27;;
19883;SDS011;10104;50.732;10.174;2024-01-10T02:32:47;40.97;;;17.83;;
19883;SDS011;10104;50.732;10.174;2024-01-10T02:35:27;38.57;;;17.53;;
19883;SDS011;10104;50.732;10.174;2024-01-10T02:38:07;42.10;;;17.43;;
19883;SDS011;10104;50.732;10.174;2024-01-10T02:40:47;44.43;;;16.93;;
19883;SDS011;10104;50.732;10.174;2024-01-10T02:43:27;39.50;;;17.63;;
19883;SDS011;10104;50.732;10.174;2024-01-10T02:46:07;42.50;;;20.50;;
19883;SDS011;10104;50.732;10.174;2024-01-10T02:48:47;55.20;;;21.33;;
19883;SDS011;10104;50.732;10.174;2024-01-10T02:51:27;46.13;;;21.00;;
19883;SDS011;10104;50.732;10.174;2024-01-10T02:54:09;48.33;;;19.23;;
19883;SDS011;10104;50.732;10.174;2024-01-10T02:56:50;44.27;;;18.70;;
19883;SDS011;10104;50.732;10.174;2024-01-10T02:59:30;39.90;;;19.23;;
19883;SDS011;10104;50.732;10.174;2024-01-10T03:02:10;43.30;;;17.93;;
19883;SDS011;10104;50.732;10.174;2024-01-10T03:04:50;39.17;;;16.80;;
19883;SDS011;10104;50.732;10.174;2024-01-10T03:07:31;41.30;;;17.77;;
19883;SDS011;10104;50.732;10.174;2024-01-10T03:10:11;42.37;;;17.93;;
19883;SDS011;10104;50.732;10.174;2024-01-10T03:12:51;46.67;;;19.43;;
19883;SDS011;10104;50.732;10.174;2024-01-10T03:15:31;43.73;;;17.70;;
19883;SDS011;10104;50.732;10.174;2024-01-10T03:18:11;40.47;;;18.27;;
19883;SDS011;10104;50.732;10.174;2024-01-10T03:20:52;44.50;;;17.13;;
19883;SDS011;10104;50.732;10.174;2024-01-10T03:23:33;44.37;;;19.17;;
19883;SDS011;10104;50.732;10.174;2024-01-10T03:26:13;48.03;;;18.90;;
19883;SDS011;10104;50.732;10.174;2024-01-10T03:28:53;39.03;;;16.87;;
19883;SDS011;10104;50.732;10.174;2024-01-10T03:31:33;46.43;;;19.27;;
19883;SDS011;10104;50.732;10.174;2024-01-10T03:34:14;38.97;;;16.93;;
19883;SDS011;10104;50.732;10.174;2024-01-10T03:36:54;43.87;;;17.63;;
19883;SDS011;10104;50.732;10.174;2024-01-10T03:39:34;35.73;;;15.10;;
19883;SDS011;10104;50.732;10.174;2024-01-10T03:42:14;42.90;;;17.87;;
19883;SDS011;10104;50.732;10.174;2024-01-10T03:44:55;36.03;;;16.37;;
19883;SDS011;10104;50.732;10.174;2024-01-10T03:47:36;44.67;;;16.53;;
19883;SDS011;10104;50.732;10.174;2024-01-10T03:50:17;40.47;;;17.73;;
19883;SDS011;10104;50.732;10.174;2024-01-10T03:53:01;41.47;;;18.53;;
19883;SDS011;10104;50.732;10.174;2024-01-10T03:55:41;37.57;;;16.10;;
19883;SDS011;10104;50.732;10.174;2024-01-10T03:58:21;42.67;;;17.60;;
19883;SDS011;10104;50.732;10.174;2024-01-10T04:01:07;38.40;;;17.20;;
19883;SDS011;10104;50.732;10.174;2024-01-10T04:03:48;45.83;;;17.13;;
19883;SDS011;10104;50.732;10.174;2024-01-10T04:06:28;41.60;;;17.37;;
19883;SDS011;10104;50.732;10.174;2024-01-10T04:09:09;38.83;;;16.40;;
19883;SDS011;10104;50.732;10.174;2024-01-10T04:11:51;40.00;;;17.27;;
19883;SDS011;10104;50.732;10.174;2024-01-10T04:14:31;37.50;;;16.43;;
19883;SDS011;10104;50.732;10.174;2024-01-10T04:17:11;43.33;;;19.80;;
19883;SDS011;10104;50.732;10.174;2024-01-10T04:19:52;41.20;;;19.87;;
19883;SDS011;10104;50.732;10.174;2024-01-10T04:22:32;39.77;;;17.33;;
19883;SDS011;10104;50.732;10.174;2024-01-10T04:25:12;37.33;;;16.00;;
19883;SDS011;10104;50.732;10.174;2024-01-10T04:27:52;44.63;;;17.00;;
19883;SDS011;10104;50.732;10.174;2024-01-10T04:30:33;42.13;;;17.70;;
19883;SDS011;10104;50.732;10.174;2024-01-10T04:33:13;39.87;;;16.00;;
19883;SDS011;10104;50.732;10.174;2024-01-10T04:35:53;44.33;;;18.70;;
19883;SDS011;10104;50.732;10.174;2024-01-10T04:38:33;40.33;;;17.93;;
19883;SDS011;10104;50.732;10.174;2024-01-10T04:41:13;38.87;;;17.50;;
19883;SDS011;10104;50.732;10.174;2024-01-10T04:43:54;47.60;;;18.67;;
19883;SDS011;10104;50.732;10.174;2024-01-10T04:46:34;57.47;;;26.00;;
19883;SDS011;10104;50.732;10.174;2024-01-10T04:49:13;48.30;;;21.60;;
19883;SDS011;10104;50.732;10.174;2024-01-10T04:51:54;45.87;;;19.53;;
19883;SDS011;10104;50.732;10.174;2024-01-10T04:54:34;47.67;;;19.77;;
19883;SDS011;10104;50.732;10.174;2024-01-10T04:57:14;38.70;;;17.00;;
19883;SDS011;10104;50.732;10.174;2024-01-10T04:59:54;39.83;;;16.60;;
19883;SDS011;10104;50.732;10.174;2024-01-10T05:02:35;40.63;;;15.90;;
19883;SDS011;10104;50.732;10.174;2024-01-10T05:05:15;43.63;;;17.87;;
19883;SDS011;10104;50.732;10.174;2024-01-10T05:07:56;46.87;;;17.83;;
19883;SDS011;10104;50.732;10.174;2024-01-10T05:10:36;44.17;;;19.83;;
19883;SDS011;10104;50.732;10.174;2024-01-10T05:13:17;43.97;;;18.67;;
19883;SDS011;10104;50.732;10.174;2024-01-10T05:15:57;41.67;;;17.53;;
19883;SDS011;10104;50.732;10.174;2024-01-10T05:18:38;41.30;;;17.70;;
19883;SDS011;10104;50.732;10.174;2024-01-10T05:21:18;50.57;;;17.80;;
19883;SDS011;10104;50.732;10.174;2024-01-10T05:23:58;41.40;;;17.97;;
19883;SDS011;10104;50.732;10.174;2024-01-10T05:26:38;40.17;;;17.67;;
19883;SDS011;10104;50.732;10.174;2024-01-10T05:29:18;43.87;;;18.33;;
19883;SDS011;10104;50.732;10.174;2024-01-10T05:31:59;37.37;;;17.00;;
19883;SDS011;10104;50.732;10.174;2024-01-10T05:34:40;46.33;;;18.57;;
19883;SDS011;10104;50.732;10.174;2024-01-10T05:37:20;51.27;;;20.07;;
19883;SDS011;10104;50.732;10.174;2024-01-10T05:40:02;50.07;;;21.53;;
19883;SDS011;10104;50.732;10.174;2024-01-10T05:42:45;55.90;;;21.70;;
19883;SDS011;10104;50.732;10.174;2024-01-10T05:45:26;43.83;;;18.00;;
19883;SDS011;10104;50.732;10.174;2024-01-10T05:48:06;41.23;;;18.30;;
19883;SDS011;10104;50.732;10.174;2024-01-10T05:50:47;39.07;;;17.47;;
19883;SDS011;10104;50.732;10.174;2024-01-10T05:53:27;40.87;;;18.30;;
19883;SDS011;10104;50.732;10.174;2024-01-10T05:56:08;41.43;;;17.90;;
19883;SDS011;10104;50.732;10.174;2024-01-10T05:58:48;43.17;;;18.67;;
19883;SDS011;10104;50.732;10.174;2024-01-10T06:01:30;43.30;;;19.07;;
19883;SDS011;10104;50.732;10.174;2024-01-10T06:04:10;45.63;;;18.90;;
19883;SDS011;10104;50.732;10.174;2024-01-10T06:06:50;47.53;;;19.27;;
19883;SDS011;10104;50.732;10.174;2024-01-10T06:09:30;44.00;;;18.47;;
19883;SDS011;10104;50.732;10.174;2024-01-10T06:12:10;47.13;;;18.50;;
19883;SDS011;10104;50.732;10.174;2024-01-10T06:14:50;51.10;;;19.57;;
19883;SDS011;10104;50.732;10.174;2024-01-10T06:17:31;48.13;;;18.00;;
19883;SDS011;10104;50.732;10.174;2024-01-10T06:20:11;48.17;;;17.47;;
19883;SDS011;10104;50.732;10.174;2024-01-10T06:22:52;40.17;;;17.57;;
19883;SDS011;10104;50.732;10.174;2024-01-10T06:25:32;117.63;;;45.90;;
19883;SDS011;10104;50.732;10.174;2024-01-10T06:28:12;124.73;;;46.83;;
19883;SDS011;10104;50.732;10.174;2024-01-10T06:30:52;95.60;;;39.37;;
19883;SDS011;10104;50.732;10.174;2024-01-10T06:33:32;98.87;;;38.37;;
19883;SDS011;10104;50.732;10.174;2024-01-10T06:36:13;77.10;;;32.50;;
19883;SDS011;10104;50.732;10.174;2024-01-10T06:38:53;77.13;;;33.27;;
19883;SDS011;10104;50.732;10.174;2024-01-10T06:41:34;57.87;;;26.00;;
19883;SDS011;10104;50.732;10.174;2024-01-10T06:44:14;68.00;;;29.30;;
19883;SDS011;10104;50.732;10.174;2024-01-10T06:46:57;70.13;;;28.80;;
19883;SDS011;10104;50.732;10.174;2024-01-10T06:49:38;54.90;;;25.07;;
19883;SDS011;10104;50.732;10.174;2024-01-10T06:52:19;48.43;;;22.07;;
19883;SDS011;10104;50.732;10.174;2024-01-10T06:55:00;54.03;;;22.83;;
19883;SDS011;10104;50.732;10.174;2024-01-10T06:57:40;49.73;;;23.00;;
19883;SDS011;10104;50.732;10.174;2024-01-10T07:00:20;64.57;;;24.57;;
19883;SDS011;10104;50.732;10.174;2024-01-10T07:03:01;50.97;;;21.27;;
19883;SDS011;10104;50.732;10.174;2024-01-10T07:05:42;51.27;;;20.67;;
19883;SDS011;10104;50.732;10.174;2024-01-10T07:08:25;56.47;;;22.93;;
19883;SDS011;10104;50.732;10.174;2024-01-10T07:11:06;50.37;;;21.07;;
19883;SDS011;10104;50.732;10.174;2024-01-10T07:13:46;46.63;;;20.00;;
19883;SDS011;10104;50.732;10.174;2024-01-10T07:16:26;46.57;;;19.80;;
19883;SDS011;10104;50.732;10.174;2024-01-10T07:19:06;47.80;;;19.27;;
19883;SDS011;10104;50.732;10.174;2024-01-10T07:21:46;43.93;;;18.03;;
19883;SDS011;10104;50.732;10.174;2024-01-10T07:24:26;43.33;;;20.13;;
19883;SDS011;10104;50.732;10.174;2024-01-10T07:27:06;51.20;;;19.53;;
19883;SDS011;10104;50.732;10.174;2024-01-10T07:29:47;47.60;;;19.37;;
19883;SDS011;10104;50.732;10.174;2024-01-10T07:32:27;50.67;;;20.40;;
19883;SDS011;10104;50.732;10.174;2024-01-10T07:35:08;39.13;;;18.73;;
19883;SDS011;10104;50.732;10.174;2024-01-10T07:37:49;36.87;;;17.83;;
19883;SDS011;10104;50.732;10.174;2024-01-10T07:40:29;48.57;;;17.17;;
19883;SDS011;10104;50.732;10.174;2024-01-10T07:43:09;44.77;;;18.67;;
19883;SDS011;10104;50.732;10.174;2024-01-10T07:45:51;45.33;;;18.27;;
19883;SDS011;10104;50.732;10.174;2024-01-10T07:48:31;42.83;;;19.30;;
19883;SDS011;10104;50.732;10.174;2024-01-10T07:51:11;52.23;;;20.37;;
19883;SDS011;10104;50.732;10.174;2024-01-10T07:53:52;51.87;;;19.10;;
19883;SDS011;10104;50.732;10.174;2024-01-10T07:56:32;46.33;;;19.73;;
19883;SDS011;10104;50.732;10.174;2024-01-10T07:59:12;45.27;;;20.40;;
19883;SDS011;10104;50.732;10.174;2024-01-10T08:01:55;47.27;;;20.00;;
19883;SDS011;10104;50.732;10.174;2024-01-10T08:04:38;44.77;;;19.43;;
19883;SDS011;10104;50.732;10.174;2024-01-10T08:07:19;47.97;;;21.17;;
19883;SDS011;10104;50.732;10.174;2024-01-10T08:10:00;50.63;;;23.83;;
19883;SDS011;10104;50.732;10.174;2024-01-10T08:12:40;52.80;;;22.97;;
19883;SDS011;10104;50.732;10.174;2024-01-10T08:15:24;51.80;;;21.70;;
19883;SDS011;10104;50.732;10.174;2024-01-10T08:18:04;51.87;;;23.27;;
19883;SDS011;10104;50.732;10.174;2024-01-10T08:20:45;55.43;;;23.17;;
19883;SDS011;10104;50.732;10.174;2024-01-10T08:23:25;54.80;;;22.50;;
19883;SDS011;10104;50.732;10.174;2024-01-10T08:26:08;47.90;;;21.23;;
19883;SDS011;10104;50.732;10.174;2024-01-10T08:28:49;56.57;;;21.57;;
19883;SDS011;10104;50.732;10.174;2024-01-10T08:31:29;40.50;;;19.97;;
19883;SDS011;10104;50.732;10.174;2024-01-10T08:34:09;57.77;;;22.70;;
19883;SDS011;10104;50.732;10.174;2024-01-10T08:36:49;61.87;;;25.07;;
19883;SDS011;10104;50.732;10.174;2024-01-10T08:39:30;48.50;;;23.33;;
19883;SDS011;10104;50.732;10.174;2024-01-10T08:42:10;53.33;;;22.90;;
19883;SDS011;10104;50.732;10.174;2024-01-10T08:44:52;49.63;;;22.80;;
19883;SDS011;10104;50.732;10.174;2024-01-10T08:47:33;48.70;;;21.63;;
19883;SDS011;10104;50.732;10.174;2024-01-10T08:50:14;55.60;;;21.87;;
19883;SDS011;10104;50.732;10.174;2024-01-10T08:52:54;69.00;;;27.30;;
19883;SDS011;10104;50.732;10.174;2024-01-10T08:55:34;67.43;;;28.43;;
19883;SDS011;10104;50.732;10.174;2024-01-10T08:58:16;63.30;;;28.37;;
19883;SDS011;10104;50.732;10.174;2024-01-10T09:00:56;74.93;;;28.90;;
19883;SDS011;10104;50.732;10.174;2024-01-10T09:03:37;62.17;;;27.13;;
19883;SDS011;10104;50.732;10.174;2024-01-10T09:06:20;69.07;;;28.40;;
19883;SDS011;10104;50.732;10.174;2024-01-10T09:09:01;71.60;;;27.00;;
19883;SDS011;10104;50.732;10.174;2024-01-10T09:11:41;68.13;;;28.10;;
19883;SDS011;10104;50.732;10.174;2024-01-10T09:14:24;60.87;;;27.40;;
19883;SDS011;10104;50.732;10.174;2024-01-10T09:17:04;81.50;;;32.80;;
19883;SDS011;10104;50.732;10.174;2024-01-10T09:19:45;116.93;;;45.60;;
19883;SDS011;10104;50.732;10.174;2024-01-10T09:22:25;100.43;;;40.93;;
19883;SDS011;10104;50.732;10.174;2024-01-10T09:25:05;84.07;;;33.93;;
19883;SDS011;10104;50.732;10.174;2024-01-10T09:27:46;84.90;;;32.80;;
19883;SDS011;10104;50.732;10.174;2024-01-10T09:30:27;85.23;;;32.17;;
19883;SDS011;10104;50.732;10.174;2024-01-10T09:33:07;70.20;;;30.00;;
19883;SDS011;10104;50.732;10.174;2024-01-10T09:35:47;68.80;;;25.47;;
19883;SDS011;10104;50.732;10.174;2024-01-10T09:38:27;68.77;;;27.73;;
19883;SDS011;10104;50.732;10.174;2024-01-10T09:41:08;66.13;;;26.20;;
19883;SDS011;10104;50.732;10.174;2024-01-10T09:43:50;64.47;;;25.17;;
19883;SDS011;10104;50.732;10.174;2024-01-10T09:46:31;51.27;;;21.03;;
19883;SDS011;10104;50.732;10.174;2024-01-10T09:49:14;57.23;;;23.70;;
19883;SDS011;10104;50.732;10.174;2024-01-10T09:51:57;59.70;;;23.70;;
19883;SDS011;10104;50.732;10.174;2024-01-10T09:54:40;51.70;;;22.53;;
19883;SDS011;10104;50.732;10.174;2024-01-10T09:57:21;57.93;;;24.73;;
19883;SDS011;10104;50.732;10.174;2024-01-10T10:00:03;58.27;;;24.30;;
19883;SDS011;10104;50.732;10.174;2024-01-10T10:02:45;62.20;;;23.07;;
19883;SDS011;10104;50.732;10.174;2024-01-10T10:05:27;56.17;;;23.03;;
19883;SDS011;10104;50.732;10.174;2024-01-10T10:08:09;63.53;;;25.40;;
19883;SDS011;10104;50.732;10.174;2024-01-10T10:10:51;57.10;;;23.00;;
19883;SDS011;10104;50.732;10.174;2024-01-10T10:13:31;57.27;;;23.57;;
19883;SDS011;10104;50.732;10.174;2024-01-10T10:16:11;57.37;;;23.90;;
19883;SDS011;10104;50.732;10.174;2024-01-10T10:18:53;55.17;;;24.43;;
19883;SDS011;10104;50.732;10.174;2024-01-10T10:21:38;66.30;;;29.53;;
19883;SDS011;10104;50.732;10.174;2024-01-10T10:24:18;60.20;;;26.03;;
19883;SDS011;10104;50.732;10.174;2024-01-10T10:27:04;57.60;;;25.67;;
19883;SDS011;10104;50.732;10.174;2024-01-10T10:29:48;58.67;;;24.30;;
19883;SDS011;10104;50.732;10.174;2024-01-10T10:32:29;62.57;;;25.33;;
19883;SDS011;10104;50.732;10.174;2024-01-10T10:35:10;67.73;;;26.90;;
19883;SDS011;10104;50.732;10.174;2024-01-10T10:38:10;60.43;;;25.27;;
19883;SDS011;10104;50.732;10.174;2024-01-10T10:40:51;63.43;;;27.07;;
19883;SDS011;10104;50.732;10.174;2024-01-10T10:43:36;64.60;;;27.13;;
19883;SDS011;10104;50.732;10.174;2024-01-10T10:46:17;66.07;;;26.87;;
19883;SDS011;10104;50.732;10.174;2024-01-10T10:48:58;63.90;;;26.10;;
19883;SDS011;10104;50.732;10.174;2024-01-10T10:51:40;59.00;;;26.33;;
19883;SDS011;10104;50.732;10.174;2024-01-10T10:54:21;58.87;;;24.97;;
19883;SDS011;10104;50.732;10.174;2024-01-10T10:57:02;65.37;;;27.40;;
19883;SDS011;10104;50.732;10.174;2024-01-10T10:59:43;73.53;;;33.57;;
19883;SDS011;10104;50.732;10.174;2024-01-10T11:02:25;60.90;;;26.00;;
19883;SDS011;10104;50.732;10.174;2024-01-10T11:05:10;61.33;;;24.90;;
19883;SDS011;10104;50.732;10.174;2024-01-10T11:07:51;55.33;;;24.90;;
19883;SDS011;10104;50.732;10.174;2024-01-10T11:10:35;49.80;;;24.23;;
19883;SDS011;10104;50.732;10.174;2024-01-10T11:16:02;64.00;;;24.80;;
19883;SDS011;10104;50.732;10.174;2024-01-10T11:19:03;58.90;;;24.40;;
19883;SDS011;10104;50.732;10.174;2024-01-10T11:24:46;48.17;;;20.90;;
19883;SDS011;10104;50.732;10.174;2024-01-10T11:27:27;45.83;;;21.47;;
19883;SDS011;10104;50.732;10.174;2024-01-10T11:30:07;48.90;;;21.17;;
19883;SDS011;10104;50.732;10.174;2024-01-10T11:32:47;52.57;;;24.13;;
19883;SDS011;10104;50.732;10.174;2024-01-10T11:35:28;75.63;;;30.83;;
19883;SDS011;10104;50.732;10.174;2024-01-10T11:38:12;161.97;;;52.40;;
19883;SDS011;10104;50.732;10.174;2024-01-10T11:40:52;53.27;;;22.87;;
19883;SDS011;10104;50.732;10.174;2024-01-10T11:43:32;105.00;;;43.63;;
19883;SDS011;10104;50.732;10.174;2024-01-10T11:46:13;103.17;;;42.40;;
19883;SDS011;10104;50.732;10.174;2024-01-10T11:48:53;50.03;;;23.00;;
19883;SDS011;10104;50.732;10.174;2024-01-10T11:51:37;164.90;;;57.30;;
19883;SDS011;10104;50.732;10.174;2024-01-10T11:57:19;51.43;;;21.90;;
19883;SDS011;10104;50.732;10.174;2024-01-10T12:00:11;46.13;;;20.57;;
19883;SDS011;10104;50.732;10.174;2024-01-10T12:02:52;46.40;;;21.07;;
19883;SDS011;10104;50.732;10.174;2024-01-10T12:05:32;49.20;;;21.30;;
19883;SDS011;10104;50.732;10.174;2024-01-10T12:08:15;50.23;;;22.70;;
19883;SDS011;10104;50.732;10.174;2024-01-10T12:10:55;54.97;;;22.53;;
19883;SDS011;10104;50.732;10.174;2024-01-10T12:26:30;45.63;;;21.47;;
19883;SDS011;10104;50.732;10.174;2024-01-10T12:29:10;55.97;;;23.10;;
19883;SDS011;10104;50.732;10.174;2024-01-10T12:31:51;52.23;;;23.47;;
19883;SDS011;10104;50.732;10.174;2024-01-10T12:34:31;53.43;;;23.63;;
19883;SDS011;10104;50.732;10.174;2024-01-10T12:37:12;49.10;;;21.30;;
19883;SDS011;10104;50.732;10.174;2024-01-10T12:39:52;51.87;;;22.80;;
19883;SDS011;10104;50.732;10.174;2024-01-10T12:42:32;53.20;;;22.40;;
19883;SDS011;10104;50.732;10.174;2024-01-10T12:45:22;48.77;;;23.30;;
19883;SDS011;10104;50.732;10.174;2024-01-10T12:48:03;48.70;;;22.87;;
19883;SDS011;10104;50.732;10.174;2024-01-10T12:50:44;44.97;;;21.07;;
19883;SDS011;10104;50.732;10.174;2024-01-10T12:53:24;44.50;;;21.60;;
19883;SDS011;10104;50.732;10.174;2024-01-10T12:56:05;46.63;;;21.97;;
19883;SDS011;10104;50.732;10.174;2024-01-10T12:58:47;51.37;;;23.03;;
19883;SDS011;10104;50.732;10.174;2024-01-10T13:01:27;49.07;;;22.67;;
19883;SDS011;10104;50.732;10.174;2024-01-10T13:04:07;47.03;;;21.73;;
19883;SDS011;10104;50.732;10.174;2024-01-10T13:06:48;49.33;;;21.47;;
19883;SDS011;10104;50.732;10.174;2024-01-10T13:09:28;57.30;;;24.47;;
19883;SDS011;10104;50.732;10.174;2024-01-10T13:12:09;44.33;;;21.43;;
19883;SDS011;10104;50.732;10.174;2024-01-10T13:14:49;47.27;;;21.97;;
19883;SDS011;10104;50.732;10.174;2024-01-10T13:17:29;48.63;;;20.60;;
19883;SDS011;10104;50.732;10.174;2024-01-10T13:20:10;40.83;;;21.37;;
19883;SDS011;10104;50.732;10.174;2024-01-10T13:22:51;48.50;;;21.17;;
19883;SDS011;10104;50.732;10.174;2024-01-10T13:25:31;42.97;;;20.60;;
19883;SDS011;10104;50.732;10.174;2024-01-10T13:28:11;46.20;;;21.37;;
19883;SDS011;10104;50.732;10.174;2024-01-10T13:30:52;48.87;;;19.93;;
19883;SDS011;10104;50.732;10.174;2024-01-10T13:33:36;41.03;;;19.77;;
19883;SDS011;10104;50.732;10.174;2024-01-10T13:36:25;43.23;;;20.70;;
19883;SDS011;10104;50.732;10.174;2024-01-10T13:39:05;41.70;;;20.60;;
19883;SDS011;10104;50.732;10.174;2024-01-10T13:41:45;45.37;;;20.83;;
19883;SDS011;10104;50.732;10.174;2024-01-10T13:44:25;42.10;;;20.17;;
19883;SDS011;10104;50.732;10.174;2024-01-10T13:47:06;43.10;;;20.23;;
19883;SDS011;10104;50.732;10.174;2024-01-10T13:49:46;43.03;;;19.97;;
19883;SDS011;10104;50.732;10.174;2024-01-10T13:52:27;38.80;;;19.30;;
19883;SDS011;10104;50.732;10.174;2024-01-10T13:55:07;37.90;;;18.80;;
19883;SDS011;10104;50.732;10.174;2024-01-10T13:57:49;40.07;;;19.27;;
19883;SDS011;10104;50.732;10.174;2024-01-10T14:00:29;46.27;;;20.47;;
19883;SDS011;10104;50.732;10.174;2024-01-10T14:03:09;41.87;;;20.00;;
19883;SDS011;10104;50.732;10.174;2024-01-10T14:05:49;43.23;;;20.03;;
19883;SDS011;10104;50.732;10.174;2024-01-10T14:08:30;38.63;;;20.10;;
19883;SDS011;10104;50.732;10.174;2024-01-10T14:11:10;37.43;;;18.20;;
19883;SDS011;10104;50.732;10.174;2024-01-10T14:13:50;41.37;;;18.90;;
19883;SDS011;10104;50.732;10.174;2024-01-10T14:16:32;39.33;;;18.93;;
19883;SDS011;10104;50.732;10.174;2024-01-10T14:19:13;36.27;;;18.00;;
19883;SDS011;10104;50.732;10.174;2024-01-10T14:21:53;38.10;;;18.33;;
19883;SDS011;10104;50.732;10.174;2024-01-10T14:24:33;42.47;;;19.13;;
19883;SDS011;10104;50.732;10.174;2024-01-10T14:27:13;39.20;;;19.10;;
19883;SDS011;10104;50.732;10.174;2024-01-10T14:29:54;38.83;;;19.13;;
19883;SDS011;10104;50.732;10.174;2024-01-10T14:32:34;35.00;;;19.77;;
19883;SDS011;10104;50.732;10.174;2024-01-10T14:35:15;41.77;;;19.37;;
19883;SDS011;10104;50.732;10.174;2024-01-10T14:37:55;37.33;;;18.27;;
19883;SDS011;10104;50.732;10.174;2024-01-10T14:40:36;41.50;;;19.17;;
19883;SDS011;10104;50.732;10.174;2024-01-10T14:43:17;42.33;;;20.03;;
19883;SDS011;10104;50.732;10.174;2024-01-10T14:45:57;44.50;;;20.67;;
19883;SDS011;10104;50.732;10.174;2024-01-10T14:48:38;44.93;;;20.30;;
19883;SDS011;10104;50.732;10.174;2024-01-10T14:51:18;38.97;;;19.67;;
19883;SDS011;10104;50.732;10.174;2024-01-10T14:53:59;47.20;;;22.13;;
19883;SDS011;10104;50.732;10.174;2024-01-10T14:56:39;44.10;;;21.40;;
19883;SDS011;10104;50.732;10.174;2024-01-10T14:59:22;45.27;;;22.77;;
19883;SDS011;10104;50.732;10.174;2024-01-10T15:02:19;46.67;;;23.40;;
19883;SDS011;10104;50.732;10.174;2024-01-10T15:05:00;54.47;;;24.40;;
19883;SDS011;10104;50.732;10.174;2024-01-10T15:07:40;49.83;;;24.47;;
19883;SDS011;10104;50.732;10.174;2024-01-10T15:10:20;53.70;;;24.93;;
19883;SDS011;10104;50.732;10.174;2024-01-10T15:13:00;49.93;;;23.97;;
19883;SDS011;10104;50.732;10.174;2024-01-10T15:15:42;51.63;;;23.60;;
19883;SDS011;10104;50.732;10.174;2024-01-10T15:18:22;47.07;;;23.20;;
19883;SDS011;10104;50.732;10.174;2024-01-10T15:21:02;48.83;;;23.60;;
19883;SDS011;10104;50.732;10.174;2024-01-10T15:23:45;47.90;;;23.40;;
19883;SDS011;10104;50.732;10.174;2024-01-10T15:26:25;46.67;;;23.47;;
19883;SDS011;10104;50.732;10.174;2024-01-10T15:29:08;46.67;;;23.83;;
19883;SDS011;10104;50.732;10.174;2024-01-10T15:31:48;44.77;;;22.30;;
19883;SDS011;10104;50.732;10.174;2024-01-10T15:34:29;44.07;;;22.67;;
19883;SDS011;10104;50.732;10.174;2024-01-10T15:37:09;54.47;;;25.70;;
19883;SDS011;10104;50.732;10.174;2024-01-10T15:39:50;51.57;;;23.47;;
19883;SDS011;10104;50.732;10.174;2024-01-10T15:42:30;52.70;;;24.73;;
19883;SDS011;10104;50.732;10.174;2024-01-10T15:45:11;51.53;;;24.90;;
19883;SDS011;10104;50.732;10.174;2024-01-10T15:47:51;57.67;;;26.80;;